createdAt,value
2022-08-23T00:00:46.948Z,23.10
2022-08-23T00:03:36.660Z,23.20
2022-08-23T00:06:25.937Z,23.20
2022-08-23T00:09:14.855Z,23.20
2022-08-23T00:12:21.039Z,23.20
2022-08-23T00:15:13.017Z,23.20
2022-08-23T00:18:00.913Z,23.20
2022-08-23T00:20:49.172Z,23.10
2022-08-23T00:23:37.417Z,23.10
2022-08-23T00:26:26.016Z,23.20
2022-08-23T00:29:16.816Z,23.20
2022-08-23T00:32:08.842Z,23.20
2022-08-23T00:34:58.650Z,23.10
2022-08-23T00:37:51.606Z,23.10
2022-08-23T00:40:55.011Z,23.10
2022-08-23T00:44:01.636Z,23.30
2022-08-23T00:47:14.738Z,23.30
2022-08-23T00:50:23.838Z,23.40
2022-08-23T00:53:26.252Z,23.30
2022-08-23T00:56:18.011Z,23.30
2022-08-23T00:59:07.526Z,23.20
2022-08-23T01:01:55.269Z,23.10
2022-08-23T01:04:52.597Z,23.10
2022-08-23T01:07:49.064Z,23.00
2022-08-23T01:10:46.504Z,23.00
2022-08-23T01:13:50.501Z,23.00
2022-08-23T01:16:59.612Z,22.80
2022-08-23T01:20:12.998Z,23.20
2022-08-23T01:24:03.922Z,23.00
2022-08-23T01:26:52.531Z,23.10
2022-08-23T01:29:42.597Z,22.90
2022-08-23T01:32:30.377Z,23.10
2022-08-23T01:38:17.841Z,23.20
2022-08-23T01:41:07.176Z,23.20
2022-08-23T01:43:54.821Z,23.20
2022-08-23T01:46:45.601Z,23.30
2022-08-23T01:49:35.053Z,23.20
2022-08-23T01:52:22.920Z,23.10
2022-08-23T01:55:11.741Z,22.90
2022-08-23T01:58:03.887Z,23.10
2022-08-23T02:00:51.436Z,22.90
2022-08-23T02:03:39.013Z,22.90
2022-08-23T02:06:26.981Z,23.00
2022-08-23T02:09:17.291Z,23.10
2022-08-23T02:12:06.416Z,23.20
2022-08-23T02:14:53.976Z,22.90
2022-08-23T02:17:42.072Z,23.20
2022-08-23T02:20:29.572Z,23.00
2022-08-23T02:23:18.819Z,22.60
2022-08-23T02:26:07.196Z,22.70
2022-08-23T02:28:56.473Z,22.50
2022-08-23T02:31:44.978Z,22.80
2022-08-23T02:34:33.692Z,22.70
2022-08-23T02:37:21.177Z,22.60
2022-08-23T02:40:10.032Z,22.50
2022-08-23T02:43:00.181Z,22.30
2022-08-23T02:45:47.812Z,22.30
2022-08-23T02:48:37.678Z,22.00
2022-08-23T02:51:26.346Z,22.50
2022-08-23T02:54:14.297Z,22.60
2022-08-23T02:57:02.574Z,22.50
2022-08-23T02:59:50.578Z,22.60
2022-08-23T03:02:39.326Z,22.70
2022-08-23T03:05:27.072Z,22.60
2022-08-23T03:08:15.017Z,22.50
2022-08-23T03:11:03.111Z,22.60
2022-08-23T03:13:57.679Z,22.70
2022-08-23T03:16:45.812Z,22.40
2022-08-23T03:19:35.271Z,22.50
2022-08-23T03:22:23.456Z,22.70
2022-08-23T03:25:11.486Z,22.90
2022-08-23T03:28:03.648Z,22.90
2022-08-23T03:30:51.813Z,22.70
2022-08-23T03:33:40.448Z,22.10
2022-08-23T03:36:28.441Z,22.50
2022-08-23T03:39:16.697Z,22.30
2022-08-23T03:42:05.052Z,22.50
2022-08-23T03:44:56.700Z,22.60
2022-08-23T03:47:49.693Z,22.70
2022-08-23T03:50:37.573Z,22.70
2022-08-23T03:53:25.132Z,22.50
2022-08-23T03:56:22.588Z,22.90
2022-08-23T03:59:11.750Z,22.70
2022-08-23T04:01:59.673Z,22.40
2022-08-23T04:04:47.204Z,22.40
2022-08-23T04:07:36.260Z,22.50
2022-08-23T04:10:24.197Z,22.40
2022-08-23T04:13:11.746Z,22.40
2022-08-23T04:16:02.952Z,22.50
2022-08-23T04:18:50.537Z,22.60
2022-08-23T04:21:43.285Z,22.40
2022-08-23T04:24:30.848Z,22.70
2022-08-23T04:27:18.649Z,22.40
2022-08-23T04:30:07.259Z,22.30
2022-08-23T04:32:56.152Z,22.50
2022-08-23T04:35:44.649Z,22.50
2022-08-23T04:38:32.952Z,22.50
2022-08-23T04:41:39.278Z,22.00
2022-08-23T04:44:27.267Z,22.40
2022-08-23T04:47:15.508Z,22.50
2022-08-23T04:50:04.047Z,22.50
2022-08-23T04:52:51.493Z,22.50
2022-08-23T04:55:39.317Z,22.50
2022-08-23T04:58:27.528Z,22.70
2022-08-23T05:01:16.504Z,22.70
2022-08-23T05:04:05.757Z,22.80
2022-08-23T05:06:53.349Z,22.70
2022-08-23T05:09:41.123Z,22.80
2022-08-23T05:12:29.513Z,22.90
2022-08-23T05:15:17.852Z,22.90
2022-08-23T05:18:05.988Z,22.80
2022-08-23T05:20:54.160Z,22.70
2022-08-23T05:23:41.788Z,22.80
2022-08-23T05:26:30.018Z,22.90
2022-08-23T05:29:17.608Z,22.90
2022-08-23T05:32:05.313Z,22.80
2022-08-23T05:34:52.934Z,22.90
2022-08-23T05:37:40.437Z,23.20
2022-08-23T05:40:29.202Z,23.00
2022-08-23T05:43:22.241Z,23.20
2022-08-23T05:46:14.470Z,23.30
2022-08-23T05:49:02.609Z,23.20
2022-08-23T05:51:51.789Z,23.20
2022-08-23T05:54:40.601Z,23.30
2022-08-23T05:57:28.297Z,23.30
2022-08-23T06:00:16.059Z,23.20
2022-08-23T06:03:03.859Z,23.10
2022-08-23T06:05:59.128Z,23.10
2022-08-23T06:08:48.897Z,23.20
2022-08-23T06:11:36.822Z,23.20
2022-08-23T06:14:24.445Z,23.20
2022-08-23T06:17:12.472Z,23.10
2022-08-23T06:20:00.194Z,23.20
2022-08-23T06:22:47.853Z,23.50
2022-08-23T06:25:40.093Z,23.30
2022-08-23T06:28:30.370Z,23.40
2022-08-23T06:31:40.022Z,23.40
2022-08-23T06:34:33.726Z,23.40
2022-08-23T06:37:22.192Z,23.40
2022-08-23T06:40:11.616Z,23.70
2022-08-23T06:42:59.270Z,23.60
2022-08-23T06:45:54.887Z,23.70
2022-08-23T06:48:47.432Z,23.70
2022-08-23T06:51:46.208Z,23.60
2022-08-23T06:54:35.928Z,23.70
2022-08-23T06:57:24.245Z,23.30
2022-08-23T07:00:12.953Z,23.30
2022-08-23T07:03:00.850Z,23.80
2022-08-23T07:05:48.673Z,23.40
2022-08-23T07:08:36.462Z,23.50
2022-08-23T07:11:25.559Z,23.40
2022-08-23T07:14:17.699Z,23.40
2022-08-23T07:17:06.321Z,23.50
2022-08-23T07:19:54.138Z,23.60
2022-08-23T07:22:41.658Z,23.60
2022-08-23T07:25:29.348Z,23.80
2022-08-23T07:28:17.033Z,23.50
2022-08-23T07:31:22.507Z,23.50
2022-08-23T07:34:10.915Z,23.60
2022-08-23T07:36:58.377Z,23.90
2022-08-23T07:39:46.155Z,23.70
2022-08-23T07:42:33.857Z,23.60
2022-08-23T07:45:23.048Z,23.80
2022-08-23T07:48:14.337Z,23.80
2022-08-23T07:51:12.092Z,23.70
2022-08-23T07:54:02.358Z,23.60
2022-08-23T07:56:49.827Z,23.60
2022-08-23T07:59:37.517Z,23.50
2022-08-23T08:02:25.052Z,23.50
2022-08-23T08:05:12.672Z,22.90
2022-08-23T08:08:01.822Z,23.70
2022-08-23T08:10:55.474Z,23.70
2022-08-23T08:13:46.312Z,23.80
2022-08-23T08:16:39.933Z,23.60
2022-08-23T08:19:27.412Z,23.50
2022-08-23T08:22:14.952Z,23.70
2022-08-23T08:25:02.857Z,23.50
2022-08-23T08:27:50.512Z,23.30
2022-08-23T08:30:39.457Z,23.40
2022-08-23T08:33:30.888Z,23.20
2022-08-23T08:36:47.733Z,23.60
2022-08-23T08:39:35.472Z,23.20
2022-08-23T08:43:07.231Z,23.40
2022-08-23T08:46:16.459Z,22.90
2022-08-23T08:49:05.844Z,23.10
2022-08-23T08:52:11.412Z,23.10
2022-08-23T08:55:13.689Z,22.90
2022-08-23T08:58:05.273Z,23.10
2022-08-23T09:00:56.451Z,23.40
2022-08-23T09:03:46.240Z,23.20
2022-08-23T09:07:07.538Z,22.90
2022-08-23T09:10:34.058Z,22.80
2022-08-23T09:14:04.398Z,23.10
2022-08-23T09:17:05.602Z,23.00
2022-08-23T09:20:00.653Z,23.10
2022-08-23T09:22:58.277Z,22.50
2022-08-23T09:26:03.739Z,23.20
2022-08-23T09:29:07.349Z,22.90
2022-08-23T09:32:02.751Z,22.80
2022-08-23T09:34:50.747Z,23.00
2022-08-23T09:38:03.202Z,22.80
2022-08-23T09:40:52.637Z,23.40
2022-08-23T09:43:48.414Z,23.20
2022-08-23T09:46:44.389Z,22.80
2022-08-23T09:49:31.992Z,23.50
2022-08-23T09:52:35.288Z,23.70
2022-08-23T09:55:39.012Z,23.30
2022-08-23T09:58:43.758Z,23.70
2022-08-23T10:01:39.147Z,23.70
2022-08-23T10:04:47.269Z,23.50
2022-08-23T10:07:46.603Z,23.40
2022-08-23T10:10:50.761Z,23.60
2022-08-23T10:13:43.128Z,23.50
2022-08-23T10:17:00.873Z,23.40
2022-08-23T10:20:24.311Z,23.70
2022-08-23T10:23:34.134Z,23.80
2022-08-23T10:26:32.697Z,23.70
2022-08-23T10:29:48.707Z,23.70
2022-08-23T10:33:15.262Z,24.30
2022-08-23T10:36:23.752Z,24.10
2022-08-23T10:39:26.728Z,23.80
2022-08-23T10:42:34.274Z,23.80
2022-08-23T10:45:29.782Z,24.30
2022-08-23T10:48:32.806Z,24.30
2022-08-23T10:51:43.274Z,24.50
2022-08-23T10:55:00.318Z,24.40
2022-08-23T10:57:49.617Z,24.40
2022-08-23T11:00:38.352Z,24.40
2022-08-23T11:03:37.382Z,24.60
2022-08-23T11:06:37.161Z,24.50
2022-08-23T11:09:25.913Z,24.40
2022-08-23T11:12:34.429Z,24.40
2022-08-23T11:15:44.949Z,24.50
2022-08-23T11:18:48.789Z,24.50
2022-08-23T11:21:40.773Z,24.80
2022-08-23T11:24:48.299Z,24.90
2022-08-23T11:27:44.836Z,24.50
2022-08-23T11:30:32.415Z,24.60
2022-08-23T11:33:42.776Z,24.40
2022-08-23T11:36:33.892Z,24.50
2022-08-23T11:39:25.542Z,24.80
2022-08-23T11:42:19.440Z,24.70
2022-08-23T11:45:27.853Z,24.80
2022-08-23T11:48:43.825Z,25.10
2022-08-23T11:52:30.762Z,24.70
2022-08-23T11:56:03.147Z,24.70
2022-08-23T11:59:16.753Z,25.00
2022-08-23T12:02:39.061Z,25.10
2022-08-23T12:05:34.713Z,25.00
2022-08-23T12:08:33.195Z,25.10
2022-08-23T12:11:25.877Z,25.10
2022-08-23T12:14:31.452Z,24.70
2022-08-23T12:17:20.407Z,25.00
2022-08-23T12:20:25.597Z,25.20
2022-08-23T12:23:20.978Z,25.10
2022-08-23T12:26:28.589Z,25.10
2022-08-23T12:29:42.227Z,25.00
2022-08-23T12:32:55.215Z,25.20
2022-08-23T12:35:57.640Z,25.40
2022-08-23T12:39:18.758Z,25.40
2022-08-23T12:42:45.412Z,25.40
2022-08-23T12:45:49.128Z,25.50
2022-08-23T12:48:47.205Z,25.20
2022-08-23T12:51:49.992Z,25.60
2022-08-23T12:54:46.707Z,25.60
2022-08-23T12:57:42.777Z,25.50
2022-08-23T13:00:53.907Z,25.50
2022-08-23T13:03:48.522Z,25.50
2022-08-23T13:06:47.492Z,25.50
2022-08-23T13:09:42.433Z,25.40
2022-08-23T13:12:33.157Z,25.50
2022-08-23T13:15:54.166Z,25.50
2022-08-23T13:18:45.940Z,25.10
2022-08-23T13:21:40.105Z,25.50
2022-08-23T13:24:39.286Z,25.30
2022-08-23T13:27:56.321Z,25.40
2022-08-23T13:31:08.569Z,25.40
2022-08-23T13:33:56.146Z,25.20
2022-08-23T13:36:45.152Z,25.20
2022-08-23T13:39:34.362Z,25.40
2022-08-23T13:42:51.054Z,25.20
2022-08-23T13:45:51.643Z,25.20
2022-08-23T13:49:09.258Z,25.30
2022-08-23T13:52:17.226Z,25.20
2022-08-23T13:55:07.473Z,25.10
2022-08-23T13:57:57.712Z,25.20
2022-08-23T14:00:55.204Z,25.10
2022-08-23T14:03:43.600Z,25.10
2022-08-23T14:06:31.112Z,25.20
2022-08-23T14:09:20.112Z,24.90
2022-08-23T14:12:15.296Z,25.30
2022-08-23T14:15:05.487Z,25.50
2022-08-23T14:17:55.522Z,25.40
2022-08-23T14:20:46.092Z,25.50
2022-08-23T14:23:34.069Z,25.30
2022-08-23T14:26:23.351Z,25.30
2022-08-23T14:29:12.073Z,25.50
2022-08-23T14:32:04.594Z,25.70
2022-08-23T14:34:52.193Z,25.80
2022-08-23T14:40:57.626Z,25.70
2022-08-23T14:43:45.795Z,25.70
2022-08-23T14:46:34.024Z,25.50
2022-08-23T14:49:21.813Z,25.60
2022-08-23T14:52:10.292Z,25.90
2022-08-23T14:54:58.142Z,26.10
2022-08-23T14:57:45.782Z,26.20
2022-08-23T15:00:35.992Z,26.00
2022-08-23T15:03:27.395Z,26.30
2022-08-23T15:06:17.339Z,26.50
2022-08-23T15:09:04.954Z,26.60
2022-08-23T15:15:00.787Z,26.50
2022-08-23T15:17:52.733Z,26.50
2022-08-23T15:20:41.123Z,26.50
2022-08-23T15:23:28.752Z,26.50
2022-08-23T15:26:24.147Z,26.50
2022-08-23T15:29:11.717Z,26.50
2022-08-23T15:31:59.307Z,26.40
2022-08-23T15:34:46.968Z,26.40
2022-08-23T15:37:35.727Z,26.50
2022-08-23T15:40:25.630Z,26.30
2022-08-23T15:43:13.448Z,26.50
2022-08-23T15:46:10.378Z,26.40
2022-08-23T15:49:05.207Z,26.50
2022-08-23T15:51:53.053Z,26.40
2022-08-23T15:54:41.273Z,26.40
2022-08-23T15:57:29.528Z,26.40
2022-08-23T16:00:20.725Z,26.30
2022-08-23T16:03:19.852Z,26.30
2022-08-23T16:06:12.053Z,26.30
2022-08-23T16:08:59.683Z,25.90
2022-08-23T16:11:47.659Z,25.90
2022-08-23T16:14:36.877Z,26.10
2022-08-23T16:17:24.646Z,25.90
2022-08-23T16:20:12.888Z,26.10
2022-08-23T16:23:00.525Z,26.10
2022-08-23T16:25:48.332Z,26.20
2022-08-23T16:28:35.877Z,26.20
2022-08-23T16:31:38.489Z,26.20
2022-08-23T16:34:27.572Z,26.20
2022-08-23T16:37:15.072Z,26.20
2022-08-23T16:40:06.504Z,26.20
2022-08-23T16:42:54.282Z,26.20
2022-08-23T16:45:41.972Z,26.20
2022-08-23T16:48:29.560Z,26.10
2022-08-23T16:51:18.381Z,26.20
2022-08-23T16:54:08.451Z,26.00
2022-08-23T16:56:56.778Z,25.70
2022-08-23T16:59:47.112Z,25.90
2022-08-23T17:02:37.739Z,26.00
2022-08-23T17:05:25.597Z,26.00
2022-08-23T17:08:13.211Z,25.90
2022-08-23T17:11:03.346Z,25.90
2022-08-23T17:13:51.053Z,25.90
2022-08-23T17:16:39.259Z,25.90
2022-08-23T17:19:26.828Z,25.80
2022-08-23T17:22:14.472Z,25.80
2022-08-23T17:25:02.105Z,25.80
2022-08-23T17:27:53.366Z,25.70
2022-08-23T17:30:41.336Z,25.80
2022-08-23T17:33:28.931Z,25.80
2022-08-23T17:36:42.913Z,25.70
2022-08-23T17:39:35.137Z,25.80
2022-08-23T17:42:22.812Z,25.70
2022-08-23T17:45:11.153Z,25.70
2022-08-23T17:47:58.652Z,25.50
2022-08-23T17:50:46.970Z,25.60
2022-08-23T17:53:34.462Z,25.50
2022-08-23T17:56:21.992Z,25.60
2022-08-23T17:59:09.629Z,25.60
2022-08-23T18:01:57.512Z,25.60
2022-08-23T18:04:45.440Z,25.70
2022-08-23T18:07:33.212Z,25.70
2022-08-23T18:10:21.667Z,25.80
2022-08-23T18:13:09.177Z,25.80
2022-08-23T18:15:56.792Z,25.80
2022-08-23T18:18:44.358Z,25.80
2022-08-23T18:21:33.172Z,25.70
2022-08-23T18:24:21.239Z,25.60
2022-08-23T18:27:27.666Z,25.60
2022-08-23T18:30:16.216Z,25.50
2022-08-23T18:33:06.477Z,25.50
2022-08-23T18:35:54.130Z,25.40
2022-08-23T18:38:41.717Z,25.40
2022-08-23T18:41:29.257Z,25.40
2022-08-23T18:44:16.792Z,25.40
2022-08-23T18:47:04.746Z,25.40
2022-08-23T18:49:52.697Z,25.30
2022-08-23T18:52:40.568Z,25.30
2022-08-23T18:55:28.017Z,25.30
2022-08-23T18:58:16.252Z,25.30
2022-08-23T19:01:06.532Z,25.30
2022-08-23T19:03:57.468Z,25.30
2022-08-23T19:06:45.641Z,25.40
2022-08-23T19:09:33.206Z,25.30
2022-08-23T19:12:20.631Z,25.30
2022-08-23T19:15:09.127Z,25.30
2022-08-23T19:17:58.176Z,25.20
2022-08-23T19:20:46.226Z,25.30
2022-08-23T19:23:35.067Z,25.30
2022-08-23T19:26:31.832Z,25.30
2022-08-23T19:29:20.678Z,25.30
2022-08-23T19:32:08.315Z,25.20
2022-08-23T19:34:55.842Z,25.10
2022-08-23T19:37:43.773Z,25.20
2022-08-23T19:40:31.337Z,25.20
2022-08-23T19:43:19.031Z,25.20
2022-08-23T19:46:15.964Z,25.10
2022-08-23T19:49:07.139Z,25.10
2022-08-23T19:51:55.007Z,25.10
2022-08-23T19:54:42.522Z,25.20
2022-08-23T19:57:31.431Z,25.10
2022-08-23T20:00:19.934Z,25.10
2022-08-23T20:03:07.621Z,25.10
2022-08-23T20:05:55.186Z,25.10
2022-08-23T20:08:42.647Z,25.10
2022-08-23T20:11:32.171Z,24.90
2022-08-23T20:14:21.947Z,25.00
2022-08-23T20:17:10.337Z,25.00
2022-08-23T20:19:58.167Z,25.00
2022-08-23T20:23:04.546Z,24.90
2022-08-23T20:25:52.448Z,24.90
2022-08-23T20:28:40.172Z,24.90
2022-08-23T20:31:59.778Z,24.90
2022-08-23T20:34:47.257Z,24.90
2022-08-23T20:37:36.052Z,24.90
2022-08-23T20:40:26.033Z,24.80
2022-08-23T20:43:13.617Z,24.90
2022-08-23T20:46:03.982Z,24.80
2022-08-23T20:48:53.041Z,24.90
2022-08-23T20:51:42.102Z,24.80
2022-08-23T20:54:30.874Z,24.90
2022-08-23T20:57:18.482Z,24.80
2022-08-23T21:00:08.210Z,24.80
2022-08-23T21:02:55.783Z,24.80
2022-08-23T21:05:43.347Z,24.80
2022-08-23T21:08:32.060Z,24.70
2022-08-23T21:11:27.103Z,24.80
2022-08-23T21:14:17.246Z,24.70
2022-08-23T21:17:06.817Z,24.90
2022-08-23T21:19:54.600Z,24.90
2022-08-23T21:22:42.212Z,24.80
2022-08-23T21:25:29.717Z,24.80
2022-08-23T21:28:17.188Z,24.90
2022-08-23T21:31:16.386Z,24.90
2022-08-23T21:34:05.123Z,24.90
2022-08-23T21:36:52.613Z,24.90
2022-08-23T21:39:40.577Z,24.90
2022-08-23T21:42:28.153Z,25.00
2022-08-23T21:45:15.647Z,25.10
2022-08-23T21:48:04.807Z,24.90
2022-08-23T21:50:53.152Z,24.90
2022-08-23T21:53:40.637Z,24.90
2022-08-23T21:56:28.293Z,24.90
2022-08-23T21:59:18.453Z,24.90
2022-08-23T22:02:06.081Z,24.90
2022-08-23T22:04:54.318Z,24.90
2022-08-23T22:07:42.563Z,24.80
2022-08-23T22:10:30.051Z,24.80
2022-08-23T22:13:17.689Z,24.80
2022-08-23T22:16:07.156Z,24.90
2022-08-23T22:18:54.819Z,24.90
2022-08-23T22:21:45.154Z,24.90
2022-08-23T22:24:32.844Z,24.90
2022-08-23T22:27:21.353Z,24.90
2022-08-23T22:30:10.308Z,25.00
2022-08-23T22:32:57.773Z,24.90
2022-08-23T22:35:48.831Z,24.80
2022-08-23T22:38:38.175Z,24.80
2022-08-23T22:41:29.199Z,24.80
2022-08-23T22:44:17.833Z,24.80
2022-08-23T22:47:05.604Z,24.70
2022-08-23T22:49:53.863Z,24.70
2022-08-23T22:52:42.269Z,24.80
2022-08-23T22:55:29.773Z,24.70
2022-08-23T22:58:18.308Z,24.80
2022-08-23T23:01:07.720Z,24.70
2022-08-23T23:04:02.773Z,24.80
2022-08-23T23:06:51.393Z,24.80
2022-08-23T23:09:39.080Z,24.90
2022-08-23T23:12:26.683Z,24.90
2022-08-23T23:15:14.459Z,24.90
2022-08-23T23:18:02.078Z,24.90
2022-08-23T23:20:50.535Z,24.90
2022-08-23T23:23:38.364Z,24.80
2022-08-23T23:26:26.084Z,24.80
2022-08-23T23:29:14.163Z,24.80
2022-08-23T23:32:01.889Z,24.80
2022-08-23T23:34:49.442Z,24.90
2022-08-23T23:37:37.779Z,24.90
2022-08-23T23:40:26.969Z,24.70
2022-08-23T23:43:14.593Z,24.80
2022-08-23T23:46:16.217Z,24.80
2022-08-23T23:49:03.948Z,24.70
2022-08-23T23:51:51.438Z,24.60
2022-08-23T23:54:40.948Z,24.60
2022-08-23T23:57:28.573Z,24.70
